Portada
METAR-TAF:

METAR-TAF

Aeropuertos :

Bamako, Malí

Aeropuerto Internacional de Bamako-Modibo Keïta

latitud: 12-32N, longitud: 007-57W, altitud: 380 m

Observación

El informe se hizo hace 1 hora y 15 minutos, a las 12:00 UTC
Viento 8 kt del suroeste
Temperatura 33°C
Humedad 44%
Presión 1017 hPa
Visibilidad: 8000 m

METAR: GABS 171200Z 22008KT 8000 NSC 33/19 Q1017 NOSIG

Hora: 13:15 (13:15 UTC)

Pronóstico

El informe se hizo hace 2 horas y 15 minutos, a las 11:00 UTC
Pronóstico válido del 17 a las 12 UTC al 18 a las 24 UTC
Viento 8 kt del este-noreste
Visibilidad: 8000 m
Escasas nubes a una altura de 2600 ft
Probabilidad 30% :
Temporalmente
del 17 a las 18 UTC al 17 a las 23 UTC
Nubes dispersas a una altura de 2600 ft
Escasas nubes a una altura de 3300 ft, Cumulonimbus.
tormenta

TAF: GABS 171100Z 1712/1824 07008KT 8000 FEW026 PROB30 TEMPO 1718/1723 TS SCT026 FEW033CB

Observaciones y pronósticos meteorológicos de más de 4000 aeropuertos (mensajes METAR y TAF).

Los puntos amarillos y rojos representan las estaciones disponibles.

Ponga el ratón en el punto deseado para ver el nombre de la estación.

Haga clic para ver las observaciones y los pronósticos meteorológicos.

Para cambiar el mapa : haga clic en los botones verdes con una cruz de color negro para hacer un zoom, en el botón verde con un guión para alejar o en las flechas verdes para mapas adyacentes.


METAR-TAF: